Time;durP1;ratioP1;P1;durP2;ratioP2;P2;SDS_P1;SDS_P2;PMS_P1;PMS_P2;Temp;Humidity;BMP_temperature;BMP_pressure;BME280_temperature;BME280_humidity;BME280_pressure;Samples;Min_cycle;Max_cycle;Signal;HPM_P1;HPM_P2
2023/04/14 00:01:02;;;;;;;31.57;6.53;;;16.10;56.10;;;;;;5105857;28;20202;-88
2023/04/14 00:03:29;;;;;;;54.37;8.47;;;16.10;56.10;;;;;;5100125;28;20692;-89
2023/04/14 00:05:56;;;;;;;33.83;6.23;;;16.10;56.10;;;;;;5087907;28;20205;-90
2023/04/14 00:08:24;;;;;;;47.90;6.87;;;16.10;56.20;;;;;;5095157;28;20213;-89
2023/04/14 00:10:51;;;;;;;22.77;5.60;;;16.10;56.10;;;;;;5098248;28;20203;-88
2023/04/14 00:13:17;;;;;;;26.17;5.97;;;16.00;56.60;;;;;;5100889;28;20539;-88
2023/04/14 00:15:46;;;;;;;25.40;5.93;;;16.00;56.00;;;;;;5091179;28;20227;-90
2023/04/14 00:18:13;;;;;;;22.00;5.53;;;16.00;56.00;;;;;;5090691;28;20201;-92
2023/04/14 00:20:40;;;;;;;44.00;7.23;;;15.90;55.90;;;;;;5091553;28;20205;-89
2023/04/14 00:23:07;;;;;;;32.80;7.20;;;15.90;56.00;;;;;;5097798;28;20196;-88
2023/04/14 00:25:35;;;;;;;30.40;6.50;;;15.90;56.00;;;;;;5092525;28;20657;-88
2023/04/14 00:28:02;;;;;;;29.90;5.73;;;15.90;56.00;;;;;;5102443;28;20206;-88
2023/04/14 00:30:29;;;;;;;37.93;6.70;;;15.90;56.00;;;;;;5094625;28;20203;-87
2023/04/14 00:32:57;;;;;;;24.33;5.83;;;15.90;56.00;;;;;;5110478;28;20201;-88
2023/04/14 00:35:24;;;;;;;33.67;6.23;;;15.80;55.90;;;;;;5093837;28;20240;-88
2023/04/14 00:37:52;;;;;;;25.17;5.70;;;15.80;55.90;;;;;;5095675;28;20256;-88
2023/04/14 00:40:19;;;;;;;23.80;5.70;;;15.80;55.90;;;;;;5091903;28;20208;-88
2023/04/14 00:42:47;;;;;;;27.60;5.90;;;15.80;55.90;;;;;;5091583;28;21069;-88
2023/04/14 00:45:15;;;;;;;27.40;5.90;;;15.70;55.90;;;;;;5091301;28;20208;-88
2023/04/14 00:47:45;;;;;;;26.20;5.80;;;15.70;55.90;;;;;;5090430;28;20303;-88
2023/04/14 00:50:15;;;;;;;29.30;5.53;;;15.70;55.90;;;;;;5094208;28;20664;-88
2023/04/14 00:52:43;;;;;;;62.43;8.73;;;15.70;55.90;;;;;;5094619;28;20321;-94
2023/04/14 00:55:11;;;;;;;42.53;7.00;;;15.70;55.90;;;;;;5095561;28;20212;-94
2023/04/14 00:57:38;;;;;;;24.83;5.93;;;15.70;55.90;;;;;;5106664;28;20200;-90
2023/04/14 01:00:06;;;;;;;29.77;5.87;;;15.70;55.90;;;;;;5108990;28;20568;-92
2023/04/14 01:02:33;;;;;;;26.40;5.93;;;15.60;55.90;;;;;;5093691;28;20207;-90
2023/04/14 01:05:00;;;;;;;33.27;6.27;;;15.60;55.90;;;;;;5105674;28;20576;-90
2023/04/14 01:07:30;;;;;;;29.93;6.10;;;15.60;55.90;;;;;;5103468;28;20558;-88
2023/04/14 01:09:58;;;;;;;36.87;6.63;;;15.60;55.90;;;;;;5090511;28;20278;-88
2023/04/14 01:12:39;;;;;;;32.23;6.10;;;15.60;55.90;;;;;;5091350;28;20196;-89
2023/04/14 01:15:12;;;;;;;28.73;5.87;;;15.60;55.90;;;;;;5091290;28;20293;-91
2023/04/14 01:17:45;;;;;;;26.63;5.77;;;15.60;55.90;;;;;;5092154;28;20240;-90
2023/04/14 01:20:22;;;;;;;30.13;5.87;;;15.50;55.90;;;;;;5097737;28;20198;-92
2023/04/14 01:22:58;;;;;;;40.20;7.07;;;15.50;55.90;;;;;;5101852;28;20191;-91
2023/04/14 01:26:06;;;;;;;30.43;6.17;;;15.50;55.90;;;;;;5097301;28;20198;-90
2023/04/14 01:28:45;;;;;;;31.77;6.70;;;15.50;55.90;;;;;;5089957;28;20539;-88
2023/04/14 01:31:26;;;;;;;33.03;6.70;;;15.50;55.90;;;;;;5111311;28;20298;-88
2023/04/14 01:34:11;;;;;;;30.83;6.10;;;15.40;55.80;;;;;;5094658;28;20210;-88
2023/04/14 01:36:42;;;;;;;72.43;9.43;;;15.40;55.80;;;;;;5091463;28;20235;-88
2023/04/14 01:39:13;;;;;;;28.00;6.03;;;15.50;56.00;;;;;;5106666;28;20195;-88
2023/04/14 01:41:44;;;;;;;24.57;5.37;;;15.40;55.90;;;;;;5098574;28;20210;-87
2023/04/14 01:44:14;;;;;;;33.30;6.27;;;15.40;56.00;;;;;;5095299;28;20289;-89
2023/04/14 01:46:43;;;;;;;28.37;6.30;;;15.40;55.90;;;;;;5101090;28;20229;-89
2023/04/14 01:49:12;;;;;;;25.43;5.40;;;15.40;55.90;;;;;;5096245;28;20199;-90
2023/04/14 01:51:42;;;;;;;24.43;5.07;;;15.30;55.90;;;;;;5090356;28;20198;-88
2023/04/14 01:54:10;;;;;;;44.33;7.17;;;15.30;55.90;;;;;;5102787;28;20210;-88
2023/04/14 01:56:40;;;;;;;32.87;6.30;;;15.30;55.90;;;;;;5106286;28;20221;-88
2023/04/14 01:59:08;;;;;;;26.07;5.93;;;15.30;55.90;;;;;;5106912;28;20223;-89
2023/04/14 02:01:37;;;;;;;29.87;6.20;;;15.30;55.90;;;;;;5109899;28;20210;-90
2023/04/14 02:04:07;;;;;;;33.57;6.63;;;15.30;55.80;;;;;;5104891;28;20206;-89
2023/04/14 02:06:35;;;;;;;28.40;5.87;;;15.30;56.50;;;;;;5091063;28;20524;-88
2023/04/14 02:09:04;;;;;;;27.10;5.53;;;15.20;55.80;;;;;;5097083;28;20196;-88
2023/04/14 02:11:33;;;;;;;24.53;6.00;;;15.20;55.80;;;;;;5100869;28;20201;-88
2023/04/14 02:14:00;;;;;;;30.23;6.27;;;15.20;55.80;;;;;;5096108;28;20202;-87
2023/04/14 02:16:29;;;;;;;40.93;7.07;;;15.30;55.90;;;;;;5089543;28;20219;-89
2023/04/14 02:18:57;;;;;;;34.43;6.50;;;15.20;55.80;;;;;;5095147;28;20290;-88
2023/04/14 02:21:27;;;;;;;34.93;6.73;;;15.20;55.80;;;;;;5098430;28;20665;-88
2023/04/14 02:23:54;;;;;;;33.50;6.23;;;15.20;55.90;;;;;;5107854;28;20700;-90
2023/04/14 02:26:23;;;;;;;44.43;6.83;;;15.20;56.50;;;;;;5092667;28;20247;-88
2023/04/14 02:28:54;;;;;;;49.37;7.77;;;15.10;55.80;;;;;;5092444;28;20222;-87
2023/04/14 02:31:25;;;;;;;28.60;6.27;;;15.10;55.80;;;;;;5098622;28;20195;-88
2023/04/14 02:33:54;;;;;;;45.00;7.03;;;15.10;55.80;;;;;;5091174;28;20215;-88
2023/04/14 02:36:31;;;;;;;22.53;5.50;;;15.10;55.80;;;;;;5100521;28;20233;-88
2023/04/14 02:39:01;;;;;;;28.10;5.90;;;15.00;55.70;;;;;;5088950;28;20232;-88
2023/04/14 02:41:30;;;;;;;31.40;6.27;;;15.10;55.80;;;;;;5100812;28;20296;-88
2023/04/14 02:44:05;;;;;;;24.97;5.73;;;15.00;55.80;;;;;;5095906;28;20206;-89
2023/04/14 02:46:36;;;;;;;31.43;6.00;;;15.00;55.80;;;;;;5092413;28;20194;-87
2023/04/14 02:49:05;;;;;;;24.67;5.33;;;15.00;55.80;;;;;;5105393;28;20202;-90
2023/04/14 02:51:35;;;;;;;38.40;6.90;;;15.00;55.80;;;;;;5088829;28;20904;-90
2023/04/14 02:54:04;;;;;;;26.00;5.77;;;15.00;55.80;;;;;;5089438;28;20206;-91
2023/04/14 02:56:31;;;;;;;64.27;8.80;;;14.90;55.80;;;;;;5098212;28;20218;-90
2023/04/14 02:58:59;;;;;;;25.40;5.77;;;14.90;55.80;;;;;;5096579;28;20618;-93
2023/04/14 03:01:27;;;;;;;25.20;6.03;;;14.90;55.80;;;;;;5090006;28;20209;-91
2023/04/14 03:03:56;;;;;;;27.67;6.27;;;14.90;55.80;;;;;;5089914;28;20198;-88
2023/04/14 03:06:25;;;;;;;24.57;5.63;;;14.90;55.80;;;;;;5103422;28;20197;-92
2023/04/14 03:08:54;;;;;;;58.17;8.23;;;14.90;55.80;;;;;;5106257;28;20191;-93
2023/04/14 03:11:22;;;;;;;28.40;6.07;;;14.80;55.80;;;;;;5103457;28;20534;-91
2023/04/14 03:13:54;;;;;;;68.53;9.20;;;14.90;55.90;;;;;;5100414;28;20213;-89
2023/04/14 03:16:23;;;;;;;29.33;5.83;;;14.90;55.90;;;;;;5095154;28;20589;-90
2023/04/14 03:18:53;;;;;;;33.20;6.10;;;14.90;55.90;;;;;;5088425;28;20605;-91
2023/04/14 03:21:21;;;;;;;24.10;5.77;;;14.80;55.80;;;;;;5100753;28;20300;-92
2023/04/14 03:23:51;;;;;;;31.20;6.00;;;14.80;55.80;;;;;;5101253;28;20201;-92
2023/04/14 03:26:24;;;;;;;46.00;7.37;;;14.80;55.80;;;;;;5106877;28;20257;-93
2023/04/14 03:28:52;;;;;;;35.33;6.47;;;14.80;55.80;;;;;;5096664;28;21050;-91
2023/04/14 03:31:20;;;;;;;26.77;5.97;;;14.70;55.70;;;;;;5088367;28;20714;-91
2023/04/14 03:33:54;;;;;;;37.07;6.40;;;14.70;55.70;;;;;;5091737;28;20299;-90
2023/04/14 03:36:22;;;;;;;31.87;5.83;;;14.80;55.80;;;;;;5092054;28;20254;-95
2023/04/14 03:38:49;;;;;;;32.07;6.33;;;14.70;55.80;;;;;;5109621;28;20201;-94
2023/04/14 03:41:21;;;;;;;27.60;5.93;;;14.70;55.70;;;;;;5098929;28;20199;-93
2023/04/14 03:43:53;;;;;;;37.70;6.87;;;14.70;55.70;;;;;;5099560;28;20191;-89
2023/04/14 03:46:20;;;;;;;45.67;6.93;;;14.70;55.70;;;;;;5088516;28;20210;-91
2023/04/14 03:48:49;;;;;;;33.37;6.47;;;14.70;55.70;;;;;;5092650;28;20213;-93
2023/04/14 03:51:16;;;;;;;23.10;5.60;;;14.70;55.70;;;;;;5103801;28;20194;-91
2023/04/14 03:53:46;;;;;;;27.20;6.30;;;14.70;55.70;;;;;;5099789;28;20282;-92
2023/04/14 03:56:15;;;;;;;30.20;6.00;;;14.70;55.70;;;;;;5095817;28;20198;-93
2023/04/14 03:58:46;;;;;;;29.80;5.67;;;14.60;55.70;;;;;;5105484;28;20198;-96
2023/04/14 04:01:14;;;;;;;26.60;5.77;;;14.60;55.70;;;;;;5104232;28;20290;-91
2023/04/14 04:03:43;;;;;;;62.33;8.80;;;14.70;55.70;;;;;;5101413;28;20198;-87
2023/04/14 04:06:10;;;;;;;31.43;6.10;;;14.60;55.70;;;;;;5097289;28;20201;-88
2023/04/14 04:08:40;;;;;;;27.10;6.07;;;14.60;55.70;;;;;;5091213;28;20254;-89
2023/04/14 04:11:08;;;;;;;31.03;6.23;;;14.60;55.70;;;;;;5097430;28;20202;-91
2023/04/14 04:13:36;;;;;;;34.70;6.77;;;14.60;55.70;;;;;;5099606;28;20590;-89
2023/04/14 04:16:07;;;;;;;64.10;9.20;;;14.60;55.70;;;;;;5091930;28;20198;-93
2023/04/14 04:18:37;;;;;;;36.47;6.40;;;14.60;55.70;;;;;;5093386;28;20582;-91
2023/04/14 04:21:06;;;;;;;44.10;7.33;;;14.50;55.60;;;;;;5097213;28;20194;-91
2023/04/14 04:23:34;;;;;;;54.60;8.03;;;14.60;55.70;;;;;;5093786;28;20203;-91
2023/04/14 04:26:02;;;;;;;32.70;6.73;;;14.60;55.70;;;;;;5098737;28;20577;-90
2023/04/14 04:28:30;;;;;;;30.07;6.63;;;14.50;55.60;;;;;;5087926;28;20293;-89
2023/04/14 04:30:58;;;;;;;23.33;5.37;;;14.50;55.60;;;;;;5088235;28;20214;-91
2023/04/14 04:33:28;;;;;;;32.13;6.87;;;14.50;55.60;;;;;;5089893;28;20223;-89
2023/04/14 04:35:57;;;;;;;50.57;7.97;;;14.50;55.60;;;;;;5089917;28;20206;-88
2023/04/14 04:38:24;;;;;;;41.43;7.37;;;14.50;55.60;;;;;;5103522;28;20214;-87
2023/04/14 04:40:51;;;;;;;42.47;7.43;;;14.50;55.60;;;;;;5093363;28;20275;-88
2023/04/14 04:43:18;;;;;;;33.07;7.20;;;14.50;55.60;;;;;;5088176;28;20199;-89
2023/04/14 04:45:56;;;;;;;41.23;7.07;;;14.50;55.60;;;;;;5088176;28;20220;-87
2023/04/14 04:48:23;;;;;;;51.13;7.87;;;14.40;55.50;;;;;;5101022;28;20217;-89
2023/04/14 04:50:51;;;;;;;33.33;6.40;;;14.50;55.60;;;;;;5088017;28;20864;-89
2023/04/14 04:53:18;;;;;;;28.93;6.37;;;14.40;55.50;;;;;;5087779;28;20225;-88
2023/04/14 04:55:45;;;;;;;28.50;5.80;;;14.50;55.70;;;;;;5100030;28;20206;-88
2023/04/14 04:58:11;;;;;;;33.00;6.67;;;14.50;55.60;;;;;;5094175;28;20219;-88
2023/04/14 05:00:38;;;;;;;23.03;5.90;;;14.40;55.60;;;;;;5088331;28;20667;-89
2023/04/14 05:03:05;;;;;;;22.73;5.63;;;14.40;55.60;;;;;;5099963;28;20565;-88
2023/04/14 05:05:35;;;;;;;24.37;6.10;;;14.40;55.60;;;;;;5093403;28;20237;-88
2023/04/14 05:08:04;;;;;;;45.53;7.23;;;14.40;55.60;;;;;;5098453;28;20915;-90
2023/04/14 05:10:33;;;;;;;33.00;6.57;;;14.40;55.60;;;;;;5091376;28;21101;-88
2023/04/14 05:13:00;;;;;;;48.13;7.93;;;14.30;55.50;;;;;;5090689;28;20401;-88
2023/04/14 05:15:27;;;;;;;32.37;6.20;;;14.40;55.70;;;;;;5090819;28;20191;-89
2023/04/14 05:17:54;;;;;;;26.13;5.57;;;14.30;55.60;;;;;;5102162;28;20240;-89
2023/04/14 05:20:21;;;;;;;53.77;7.93;;;14.30;55.60;;;;;;5090726;28;20201;-89
2023/04/14 05:22:50;;;;;;;31.03;6.27;;;14.30;55.60;;;;;;5104025;28;20779;-89
2023/04/14 05:25:19;;;;;;;24.83;5.67;;;14.30;55.60;;;;;;5096106;28;20208;-87
2023/04/14 05:27:46;;;;;;;31.43;6.03;;;14.30;55.60;;;;;;5090013;28;20195;-88
2023/04/14 05:30:13;;;;;;;27.73;6.13;;;14.30;55.60;;;;;;5090748;28;20616;-88
2023/04/14 05:32:40;;;;;;;34.50;6.60;;;14.30;55.60;;;;;;5090320;28;20209;-89
2023/04/14 05:35:07;;;;;;;28.77;6.33;;;14.30;55.60;;;;;;5093561;28;20205;-89
2023/04/14 05:37:34;;;;;;;33.80;6.67;;;14.30;55.60;;;;;;5102548;28;20238;-88
2023/04/14 05:40:02;;;;;;;27.63;6.23;;;14.30;55.70;;;;;;5104589;28;20208;-91
2023/04/14 05:42:30;;;;;;;29.20;6.53;;;14.30;55.70;;;;;;5090709;28;20339;-89
2023/04/14 05:44:57;;;;;;;72.43;9.50;;;14.20;55.50;;;;;;5089852;28;20234;-92
2023/04/14 05:47:24;;;;;;;27.00;5.90;;;14.20;55.60;;;;;;5091096;28;20309;-91
2023/04/14 05:49:51;;;;;;;27.23;5.93;;;14.20;55.60;;;;;;5098763;28;20200;-89
2023/04/14 05:52:18;;;;;;;33.47;6.50;;;14.20;55.60;;;;;;5103016;28;20209;-90
2023/04/14 05:54:45;;;;;;;29.80;6.33;;;14.20;55.60;;;;;;5104243;28;20895;-88
2023/04/14 05:57:12;;;;;;;28.50;6.23;;;14.20;55.70;;;;;;5090756;28;20210;-95
2023/04/14 05:59:41;;;;;;;28.27;6.10;;;14.20;55.70;;;;;;5091335;28;20681;-96
2023/04/14 06:02:08;;;;;;;38.30;6.57;;;14.20;55.70;;;;;;5097815;28;20206;-92
2023/04/14 06:04:34;;;;;;;30.40;6.13;;;14.20;55.70;;;;;;5097162;28;20225;-94
2023/04/14 06:07:02;;;;;;;46.73;7.37;;;14.10;55.60;;;;;;5095014;28;20201;-91
2023/04/14 06:09:28;;;;;;;34.67;6.83;;;14.20;55.70;;;;;;5094142;28;20207;-94
2023/04/14 06:11:56;;;;;;;41.33;7.40;;;14.20;55.70;;;;;;5093213;28;20198;-90
2023/04/14 06:14:23;;;;;;;44.13;7.97;;;14.20;55.70;;;;;;5103636;28;20710;-94
2023/04/14 06:16:51;;;;;;;28.03;6.37;;;14.10;55.60;;;;;;5101445;28;20348;-89
2023/04/14 06:19:18;;;;;;;56.13;8.00;;;14.10;55.60;;;;;;5105429;28;20191;-94
2023/04/14 06:21:45;;;;;;;35.13;6.90;;;14.10;55.60;;;;;;5091927;28;20736;-95
2023/04/14 06:24:12;;;;;;;43.63;7.30;;;14.10;55.60;;;;;;5095039;27;20198;-96
2023/04/14 06:26:39;;;;;;;65.00;8.90;;;14.10;55.60;;;;;;5100285;28;20273;-93
2023/04/14 06:29:06;;;;;;;49.90;7.67;;;14.10;55.70;;;;;;5090955;28;20220;-95
2023/04/14 06:31:33;;;;;;;45.57;7.13;;;14.20;55.80;;;;;;5095296;27;20654;-96
2023/04/14 06:34:02;;;;;;;69.80;9.60;;;14.10;55.70;;;;;;5091979;27;20214;-92
2023/04/14 06:36:30;;;;;;;28.73;6.40;;;14.10;55.70;;;;;;5089910;28;20309;-95
2023/04/14 06:38:58;;;;;;;38.70;7.50;;;14.10;55.70;;;;;;5096437;28;20678;-93
2023/04/14 06:41:25;;;;;;;29.17;6.37;;;14.00;55.60;;;;;;5096424;28;20574;-94
2023/04/14 06:43:52;;;;;;;28.57;6.50;;;14.10;55.80;;;;;;5091796;28;20201;-96
2023/04/14 06:46:19;;;;;;;26.07;6.53;;;14.10;55.70;;;;;;5095393;28;20236;-90
2023/04/14 06:48:45;;;;;;;31.73;7.00;;;14.10;55.80;;;;;;5109735;28;20219;-90
2023/04/14 06:51:14;;;;;;;32.07;6.90;;;14.00;55.70;;;;;;5099629;28;20650;-91
2023/04/14 06:53:41;;;;;;;31.17;6.83;;;14.10;55.80;;;;;;5099230;28;20217;-89
2023/04/14 06:56:08;;;;;;;31.83;6.77;;;14.10;55.80;;;;;;5092538;28;20296;-91
2023/04/14 06:58:35;;;;;;;50.43;7.40;;;14.10;55.80;;;;;;5101560;28;20227;-88
2023/04/14 07:01:03;;;;;;;29.60;6.47;;;14.10;55.80;;;;;;5101481;28;20310;-94
2023/04/14 07:03:30;;;;;;;26.40;6.47;;;14.10;55.80;;;;;;5096742;28;20190;-94
2023/04/14 07:06:03;;;;;;;39.47;6.97;;;14.00;55.80;;;;;;5110610;28;20261;-94
2023/04/14 07:08:33;;;;;;;27.43;6.60;;;14.00;55.80;;;;;;5095060;28;20213;-92
2023/04/14 07:11:01;;;;;;;24.27;5.97;;;14.10;55.90;;;;;;5089606;28;20812;-89
2023/04/14 07:13:28;;;;;;;26.60;5.97;;;14.10;55.80;;;;;;5089351;28;20218;-89
2023/04/14 07:15:55;;;;;;;31.57;7.30;;;14.00;55.80;;;;;;5094977;28;20735;-87
2023/04/14 07:18:23;;;;;;;34.13;6.83;;;14.10;55.90;;;;;;5086868;28;20333;-93
2023/04/14 07:20:51;;;;;;;30.37;6.23;;;14.00;55.80;;;;;;5095965;28;20198;-90
2023/04/14 07:23:18;;;;;;;31.07;7.03;;;14.10;55.90;;;;;;5102042;28;20195;-89
2023/04/14 07:25:50;;;;;;;46.40;7.70;;;14.10;55.90;;;;;;5091711;28;20197;-88
2023/04/14 07:28:17;;;;;;;24.77;5.80;;;14.10;55.90;;;;;;5087473;28;20648;-88
2023/04/14 07:30:44;;;;;;;32.20;6.77;;;14.00;55.80;;;;;;5089923;28;20658;-87
2023/04/14 07:33:12;;;;;;;38.93;7.50;;;14.10;56.00;;;;;;5100550;28;20299;-89
2023/04/14 07:35:39;;;;;;;30.93;6.80;;;14.10;56.00;;;;;;5089415;28;20674;-88
2023/04/14 07:38:06;;;;;;;57.37;8.33;;;14.10;56.00;;;;;;5090347;28;20237;-88
2023/04/14 07:40:33;;;;;;;32.37;7.13;;;14.10;56.00;;;;;;5101236;28;20292;-90
2023/04/14 07:43:01;;;;;;;31.03;6.70;;;14.10;56.00;;;;;;5100510;28;20657;-88
2023/04/14 07:45:29;;;;;;;45.10;7.83;;;14.10;56.00;;;;;;5089023;28;20200;-88
2023/04/14 07:47:56;;;;;;;46.27;8.00;;;14.10;56.10;;;;;;5091097;28;20807;-87
2023/04/14 07:50:23;;;;;;;29.70;6.03;;;14.10;56.00;;;;;;5090652;28;20685;-89
2023/04/14 07:52:50;;;;;;;36.63;7.30;;;14.10;56.00;;;;;;5087230;28;20266;-89
2023/04/14 07:55:17;;;;;;;32.53;6.70;;;14.20;56.10;;;;;;5098041;28;20187;-88
2023/04/14 07:57:44;;;;;;;38.10;6.97;;;14.10;56.00;;;;;;5090181;28;20233;-89
2023/04/14 08:00:14;;;;;;;37.83;7.40;;;14.10;56.10;;;;;;5088478;28;20200;-89
2023/04/14 08:02:43;;;;;;;44.27;8.07;;;14.20;56.10;;;;;;5102164;28;20565;-88
2023/04/14 08:05:10;;;;;;;33.40;7.20;;;14.10;56.10;;;;;;5103955;28;20201;-93
2023/04/14 08:07:37;;;;;;;83.10;10.63;;;14.20;56.20;;;;;;5096887;28;20211;-89
2023/04/14 08:10:05;;;;;;;25.10;6.13;;;14.20;56.10;;;;;;5102357;28;20208;-88
2023/04/14 08:12:33;;;;;;;32.47;6.70;;;14.20;56.20;;;;;;5100368;28;20197;-88
2023/04/14 08:15:00;;;;;;;30.00;6.73;;;14.20;56.20;;;;;;5096390;28;20232;-91
2023/04/14 08:17:29;;;;;;;23.97;6.43;;;14.20;56.20;;;;;;5088568;28;20459;-92
2023/04/14 08:19:56;;;;;;;42.63;7.77;;;14.20;56.20;;;;;;5091008;28;20293;-92
2023/04/14 08:22:24;;;;;;;23.43;5.80;;;14.40;56.40;;;;;;5100033;28;20205;-91
2023/04/14 08:24:51;;;;;;;27.30;6.23;;;14.20;56.20;;;;;;5105852;28;21131;-88
2023/04/14 08:27:18;;;;;;;39.97;7.67;;;14.20;56.20;;;;;;5087103;27;20290;-88
2023/04/14 08:29:45;;;;;;;30.43;6.43;;;14.30;56.30;;;;;;5099218;28;20200;-87
2023/04/14 08:32:12;;;;;;;30.47;6.27;;;14.30;56.30;;;;;;5089491;28;20862;-88
2023/04/14 08:34:40;;;;;;;31.53;6.37;;;14.30;56.30;;;;;;5087300;28;20202;-91
2023/04/14 08:37:07;;;;;;;39.77;7.40;;;14.30;56.30;;;;;;5088053;28;20243;-88
2023/04/14 08:39:34;;;;;;;29.13;6.47;;;14.30;56.30;;;;;;5101776;28;20229;-90
2023/04/14 08:42:01;;;;;;;53.67;7.97;;;14.40;56.40;;;;;;5098926;28;20713;-89
2023/04/14 08:44:29;;;;;;;51.67;8.57;;;14.40;56.40;;;;;;5091335;28;20254;-89
2023/04/14 08:46:57;;;;;;;30.40;6.83;;;14.40;56.40;;;;;;5091859;28;20201;-89
2023/04/14 08:49:38;;;;;;;36.10;6.87;;;14.40;56.40;;;;;;5102274;28;20209;-90
2023/04/14 08:52:09;;;;;;;43.40;7.60;;;14.40;56.40;;;;;;5094541;28;20202;-89
2023/04/14 08:54:36;;;;;;;30.87;6.80;;;14.40;56.40;;;;;;5099077;28;20191;-93
2023/04/14 08:57:04;;;;;;;25.87;6.33;;;14.40;56.40;;;;;;5111364;28;20297;-92
2023/04/14 08:59:31;;;;;;;30.63;6.87;;;14.50;56.50;;;;;;5104580;28;20716;-94
2023/04/14 09:01:58;;;;;;;31.60;6.63;;;14.50;56.50;;;;;;5112647;28;20212;-95
2023/04/14 09:04:28;;;;;;;35.70;7.70;;;14.50;56.50;;;;;;5100685;28;20196;-95
2023/04/14 09:06:57;;;;;;;34.67;7.20;;;14.50;56.60;;;;;;5108382;27;20263;-96
2023/04/14 09:09:26;;;;;;;44.67;7.67;;;14.50;56.60;;;;;;5096284;28;20289;-96
2023/04/14 09:11:54;;;;;;;22.57;5.90;;;14.60;56.60;;;;;;5097781;28;20214;-93
2023/04/14 09:14:22;;;;;;;27.50;6.73;;;14.60;56.60;;;;;;5094619;28;20204;-95
2023/04/14 09:16:52;;;;;;;24.03;6.70;;;14.60;57.20;;;;;;5090041;28;20281;-96
2023/04/14 09:19:20;;;;;;;34.73;7.27;;;14.70;56.70;;;;;;5109130;28;20263;-94
2023/04/14 09:21:47;;;;;;;26.67;6.47;;;14.80;56.80;;;;;;5107406;28;20570;-95
2023/04/14 09:24:16;;;;;;;26.80;6.30;;;14.70;56.70;;;;;;5100311;28;20209;-94
2023/04/14 09:26:45;;;;;;;31.27;6.63;;;14.80;56.80;;;;;;5109920;28;20202;-94
2023/04/14 09:29:12;;;;;;;45.67;7.03;;;14.80;56.80;;;;;;5095723;27;20207;-91
2023/04/14 09:31:39;;;;;;;32.00;6.07;;;14.90;56.90;;;;;;5094406;27;20195;-95
2023/04/14 09:34:16;;;;;;;31.03;6.43;;;14.90;56.90;;;;;;5101016;27;20200;-95
2023/04/14 09:36:58;;;;;;;32.23;6.20;;;15.00;57.00;;;;;;5095879;28;20782;-96
2023/04/14 09:39:27;;;;;;;46.83;7.70;;;15.00;56.90;;;;;;5096699;28;20218;-94
2023/04/14 09:41:56;;;;;;;26.60;6.00;;;15.00;56.90;;;;;;5092154;28;20675;-93
2023/04/14 09:44:23;;;;;;;53.27;7.67;;;15.10;57.00;;;;;;5093626;28;20205;-95
2023/04/14 09:47:01;;;;;;;25.83;6.17;;;15.10;57.00;;;;;;5100831;28;20200;-95
2023/04/14 09:49:29;;;;;;;25.80;5.97;;;15.10;57.10;;;;;;5093334;28;20209;-93
2023/04/14 09:52:02;;;;;;;29.77;6.50;;;15.20;57.00;;;;;;5092094;28;20202;-90
2023/04/14 09:54:30;;;;;;;29.33;6.20;;;15.20;57.10;;;;;;5102167;28;20313;-90
2023/04/14 09:57:00;;;;;;;46.53;7.83;;;15.30;57.10;;;;;;5092302;28;20567;-93
2023/04/14 09:59:32;;;;;;;36.13;6.87;;;15.30;57.10;;;;;;5091917;28;20772;-95
2023/04/14 10:02:00;;;;;;;30.67;5.90;;;15.40;57.20;;;;;;5098144;28;20611;-90
2023/04/14 10:04:27;;;;;;;28.70;5.97;;;15.40;57.20;;;;;;5095975;28;20211;-90
2023/04/14 10:06:57;;;;;;;25.70;5.80;;;15.40;57.20;;;;;;5101638;28;20670;-89
2023/04/14 10:09:26;;;;;;;26.03;5.57;;;15.40;57.20;;;;;;5101041;28;20215;-90
2023/04/14 10:12:12;;;;;;;23.43;5.70;;;15.50;57.30;;;;;;5099484;28;20238;-91
2023/04/14 10:14:39;;;;;;;35.70;6.60;;;15.50;57.30;;;;;;5098045;28;20220;-91
2023/04/14 10:17:08;;;;;;;16.03;4.57;;;15.60;57.30;;;;;;5103851;28;20236;-88
2023/04/14 10:19:36;;;;;;;15.70;4.63;;;15.60;57.30;;;;;;5101182;28;20225;-89
2023/04/14 10:22:05;;;;;;;30.47;6.17;;;15.60;57.30;;;;;;5100113;28;20562;-90
2023/04/14 10:24:33;;;;;;;28.77;5.90;;;15.70;57.40;;;;;;5096537;28;20569;-90
2023/04/14 10:27:02;;;;;;;21.97;5.40;;;15.70;57.40;;;;;;5109304;28;20342;-89
2023/04/14 10:29:31;;;;;;;24.60;5.10;;;15.70;57.30;;;;;;5112386;28;20678;-88
2023/04/14 10:32:05;;;;;;;17.63;5.17;;;15.80;57.40;;;;;;5098650;28;20573;-92
2023/04/14 10:37:18;;;;;;;29.43;5.87;;;15.90;57.40;;;;;;5106004;28;20240;-89
2023/04/14 10:39:56;;;;;;;19.67;5.40;;;15.90;57.40;;;;;;5105798;28;20292;-88
2023/04/14 10:42:23;;;;;;;20.40;5.10;;;15.90;57.40;;;;;;5101044;28;20199;-88
2023/04/14 10:45:05;;;;;;;25.47;5.73;;;15.90;57.30;;;;;;5101227;28;20283;-88
2023/04/14 10:47:34;;;;;;;37.83;6.87;;;16.00;57.50;;;;;;5103569;28;20283;-90
2023/04/14 10:50:23;;;;;;;21.10;5.90;;;16.00;57.40;;;;;;5113776;27;20240;-89
2023/04/14 10:52:53;;;;;;;29.83;5.93;;;16.00;57.40;;;;;;5094519;28;20201;-88
2023/04/14 10:55:22;;;;;;;40.37;7.17;;;16.00;57.40;;;;;;5092318;28;20287;-87
2023/04/14 10:57:49;;;;;;;43.87;7.17;;;16.10;57.50;;;;;;5102147;28;20209;-89
2023/04/14 11:00:30;;;;;;;15.87;4.63;;;16.10;57.50;;;;;;5113021;27;20233;-88
2023/04/14 11:03:04;;;;;;;21.33;5.47;;;16.10;57.80;;;;;;5097954;27;20203;-87
2023/04/14 11:05:34;;;;;;;28.13;6.10;;;16.20;57.50;;;;;;5100239;27;20204;-88
2023/04/14 11:08:12;;;;;;;12.53;4.20;;;16.20;57.50;;;;;;5103860;28;20201;-89
2023/04/14 11:10:43;;;;;;;17.10;5.03;;;16.20;57.60;;;;;;5116345;28;20675;-88
2023/04/14 11:13:13;;;;;;;22.80;5.37;;;16.20;57.50;;;;;;5103082;28;20219;-92
2023/04/14 11:15:49;;;;;;;26.77;6.23;;;16.20;57.50;;;;;;5118279;28;20217;-89
2023/04/14 11:21:20;;;;;;;16.17;5.30;;;16.30;57.60;;;;;;5122748;28;20243;-88
2023/04/14 11:24:01;;;;;;;22.20;5.00;;;16.30;57.50;;;;;;5132963;28;20196;-90
2023/04/14 11:26:34;;;;;;;16.70;4.47;;;16.40;57.60;;;;;;5111786;28;20185;-89
2023/04/14 11:29:08;;;;;;;24.13;5.20;;;16.40;57.60;;;;;;5118129;28;20217;-88
2023/04/14 11:31:45;;;;;;;22.83;5.07;;;16.40;58.30;;;;;;5115600;28;20196;-87
2023/04/14 11:34:15;;;;;;;12.13;4.37;;;16.40;57.60;;;;;;5116366;28;20193;-89
2023/04/14 11:36:46;;;;;;;29.80;5.60;;;16.40;57.60;;;;;;5115652;28;20219;-91
2023/04/14 11:39:19;;;;;;;25.13;5.27;;;16.60;57.70;;;;;;5114120;28;20273;-95
2023/04/14 11:41:48;;;;;;;11.80;4.27;;;16.50;57.70;;;;;;5127332;28;20198;-95
2023/04/14 11:44:17;;;;;;;10.83;4.40;;;16.50;57.60;;;;;;5123111;28;20197;-95
2023/04/14 11:46:46;;;;;;;20.43;5.07;;;16.50;57.60;;;;;;5111918;28;20212;-96
2023/04/14 11:49:14;;;;;;;15.07;4.50;;;16.60;57.70;;;;;;5109790;28;20326;-89
2023/04/14 11:51:43;;;;;;;38.67;6.23;;;16.60;57.70;;;;;;5093212;28;20204;-90
2023/04/14 11:54:12;;;;;;;22.37;5.13;;;16.60;57.70;;;;;;5092093;28;20198;-90
2023/04/14 11:56:41;;;;;;;29.93;5.43;;;16.60;57.70;;;;;;5088883;28;20206;-89
2023/04/14 11:59:08;;;;;;;42.33;7.63;;;16.70;57.60;;;;;;5091715;28;20279;-88
2023/04/14 12:01:56;;;;;;;12.87;4.30;;;16.70;56.80;;;;;;5123301;28;20195;-87
2023/04/14 12:04:31;;;;;;;9.77;3.97;;;16.70;56.50;;;;;;5120780;28;20206;-87
2023/04/14 12:07:02;;;;;;;17.47;4.50;;;16.80;57.00;;;;;;5134252;28;20245;-88
2023/04/14 12:09:31;;;;;;;22.43;4.53;;;16.80;57.10;;;;;;5092139;28;20264;-88
2023/04/14 12:12:00;;;;;;;33.47;5.97;;;16.80;57.20;;;;;;5094941;28;20213;-87
2023/04/14 12:14:33;;;;;;;21.83;4.63;;;16.80;57.30;;;;;;5095469;28;20183;-87
2023/04/14 12:17:04;;;;;;;34.27;5.90;;;16.90;57.40;;;;;;5095086;28;20602;-87
2023/04/14 12:19:31;;;;;;;17.43;4.27;;;17.00;57.50;;;;;;5095068;28;20782;-88
2023/04/14 12:22:02;;;;;;;42.73;6.60;;;16.90;57.40;;;;;;5093004;28;20260;-87
2023/04/14 12:24:35;;;;;;;15.43;4.40;;;17.00;57.50;;;;;;5099027;28;20722;-87
2023/04/14 12:27:05;;;;;;;23.30;5.10;;;16.90;57.40;;;;;;5101382;28;20196;-88
2023/04/14 12:29:35;;;;;;;15.57;4.60;;;17.00;57.50;;;;;;5099016;28;20251;-88
2023/04/14 12:32:10;;;;;;;12.90;4.10;;;17.00;57.50;;;;;;5097743;28;20204;-87
2023/04/14 12:34:37;;;;;;;14.13;4.67;;;17.00;57.60;;;;;;5100508;28;20290;-87
2023/04/14 12:37:13;;;;;;;13.90;3.93;;;17.00;57.50;;;;;;5116057;28;20221;-87
2023/04/14 12:39:50;;;;;;;19.73;4.63;;;17.00;57.50;;;;;;5098876;28;20674;-88
2023/04/14 12:42:27;;;;;;;17.70;4.37;;;17.10;57.60;;;;;;5102749;28;20194;-87
2023/04/14 12:44:57;;;;;;;16.73;4.47;;;17.10;57.60;;;;;;5120071;28;20206;-87
2023/04/14 12:47:29;;;;;;;24.47;4.83;;;17.10;57.60;;;;;;5112084;28;20201;-87
2023/04/14 12:49:58;;;;;;;37.77;6.37;;;17.20;57.60;;;;;;5098248;28;20237;-87
2023/04/14 12:52:37;;;;;;;18.97;4.60;;;17.20;57.60;;;;;;5098485;28;20221;-87